Flight Track Log - Related Links

Times and Time Zones

All times are in EDT time to prevent confusion due to time zone crossing. See the AUB1737 flight status page for this flight to view local times or setup timezone preferences in your user account.

Time Position Orientation Groundspeed Altitude Reporting Facility
EDT Latitude Longitude Course Direction KTS MPH feet Rate Location/Type
06:29AM 42.2993 18.8398 324° Northwest  Level Estimated
06:30AM 42.3874 18.7503 323° Northwest  Level Estimated
06:31AM 42.4754 18.6607 323° Northwest  Level Estimated
06:32AM 42.5634 18.5707 323° Northwest  Level Estimated
06:33AM 42.6512 18.4805 323° Northwest  Level Estimated
06:34AM 42.7390 18.3901 323° Northwest  Level Estimated
06:35AM 42.8268 18.2994 323° Northwest  Level Estimated
06:36AM 42.9144 18.2084 323° Northwest  Level Estimated
06:37AM 43.0020 18.1172 323° Northwest  Level Estimated
06:38AM 43.0895 18.0257 323° Northwest  Level Estimated
06:39AM 43.1769 17.9340 323° Northwest  Level Estimated
06:40AM 43.2643 17.8420 323° Northwest  Level Estimated
06:41AM 43.3516 17.7497 322° Northwest  Level Estimated
06:42AM 43.4388 17.6572 322° Northwest  Level Estimated
06:43AM 43.5260 17.5644 322° Northwest  Level Estimated
06:44AM 43.6130 17.4713 322° Northwest  Level Estimated
06:45AM 43.7000 17.3780 322° Northwest  Level Estimated
06:46AM 43.7869 17.2843 322° Northwest  Level Estimated
06:47AM 43.8738 17.1905 322° Northwest  Level Estimated
06:48AM 43.9605 17.0963 322° Northwest  Level Estimated
06:49AM 44.0472 17.0019 322° Northwest  Level Estimated
06:50AM 44.1339 16.9072 322° Northwest  Level Estimated
06:51AM 44.2204 16.8122 322° Northwest  Level Estimated
06:52AM 44.3068 16.7169 322° Northwest  Level Estimated
06:53AM 44.3932 16.6214 322° Northwest  Level Estimated
06:54AM 44.4795 16.5255 322° Northwest  Level Estimated
06:55AM 44.5657 16.4294 322° Northwest  Level Estimated
06:56AM 44.6518 16.3330 321° Northwest  Level Estimated
06:57AM 44.7379 16.2363 321° Northwest  Level Estimated
06:58AM 44.8238 16.1394 321° Northwest  Level Estimated
06:59AM 44.9097 16.0421 321° Northwest  Level Estimated
07:00AM 44.9955 15.9445 321° Northwest  Level Estimated
07:01AM 45.0812 15.8467 321° Northwest  Level Estimated
07:02AM 45.1669 15.7486 321° Northwest  Level Estimated
07:03AM 45.2524 15.6501 321° Northwest  Level Estimated
07:04AM 45.3379 15.5514 321° Northwest  Level Estimated
07:05AM 45.4233 15.4524 321° Northwest  Level Estimated
07:06AM 45.5086 15.3530 321° Northwest  Level Estimated
07:07AM 45.5938 15.2534 321° Northwest  Level Estimated
07:08AM 45.6789 15.1535 321° Northwest  Level Estimated
07:09AM 45.7639 15.0532 321° Northwest  Level Estimated
07:10AM 45.8489 14.9527 321° Northwest  Level Estimated
07:11AM 45.9337 14.8518 320° Northwest  Level Estimated
07:12AM 46.0185 14.7507 320° Northwest  Level Estimated
07:13AM 46.1032 14.6492 320° Northwest  Level Estimated
07:14AM 46.1878 14.5474 320° Northwest  Level Estimated
07:15AM 46.2723 14.4453 320° Northwest  Level Estimated
07:16AM 46.3567 14.3429 320° Northwest  Level Estimated
07:17AM 46.4410 14.2402 320° Northwest  Level Estimated
07:18AM 46.5252 14.1371 320° Northwest  Level Estimated
07:19AM 46.6094 14.0338 320° Northwest  Level Estimated
07:20AM 46.6934 13.9301 320° Northwest  Level Estimated
07:21AM 46.7773 13.8261 320° Northwest  Level Estimated
07:22AM 46.8612 13.7217 320° Northwest  Level Estimated
07:23AM 46.9449 13.6171 320° Northwest  Level Estimated
07:24AM 47.0286 13.5121 319° Northwest  Level Estimated
07:25AM 47.1122 13.4068 319° Northwest  Level Estimated
07:26AM 47.1956 13.3011 319° Northwest  Level Estimated
07:27AM 47.2790 13.1951 319° Northwest  Level Estimated
07:28AM 47.3623 13.0888 319° Northwest  Level Estimated
07:29AM 47.4454 12.9822 319° Northwest  Level Estimated
07:30AM 47.5285 12.8752 319° Northwest  Level Estimated
07:31AM 47.6115 12.7678 319° Northwest  Level Estimated
07:32AM 47.6943 12.6602 319° Northwest  Level Estimated
07:33AM 47.7771 12.5521 319° Northwest  Level Estimated
07:34AM 47.8598 12.4438 319° Northwest  Level Estimated
07:35AM 47.9423 12.3351 319° Northwest  Level Estimated
07:36AM 48.0248 12.2260 319° Northwest  Level Estimated
07:37AM 48.1072 12.1166 318° Northwest  Level Estimated
07:38AM 48.1894 12.0069 318° Northwest  Level Estimated
07:39AM 48.2716 11.8968 318° Northwest  Level Estimated
07:40AM 48.3536 11.7863 318° Northwest  Level Estimated
07:41AM 48.3538 11.7861 318° Northwest  Level Estimated
07:42AM 48.3538 11.7861 318° Northwest  Level Estimated
07:43AM 48.3538 11.7861 318° Northwest  Level Estimated
07:44AM 48.3538 11.7861 318° Northwest  Level Estimated
07:45AM 48.3538 11.7861 318° Northwest  Level Estimated
07:46AM 48.3538 11.7861 318° Northwest  Level Estimated
07:47AM 48.3538 11.7861 318° Northwest  Level Estimated
07:48AM 48.3538 11.7861 318° Northwest  Level Estimated
07:49AM 48.3538 11.7861 318° Northwest  Level Estimated
07:50AM 48.3538 11.7861 318° Northwest  Level Estimated
07:51AM 48.3538 11.7861 318° Northwest  Level Estimated
07:52AM 48.3538 11.7861 318° Northwest  Level Estimated

Login

Don't have an account? Register now (free) for customized features, flight alerts, and more!